createdAt,value
2022-11-29T00:00:08.743Z,18.00
2022-11-29T00:02:40.000Z,17.80
2022-11-29T00:05:07.564Z,18.77
2022-11-29T00:07:36.198Z,18.67
2022-11-29T00:10:03.389Z,18.77
2022-11-29T00:12:30.449Z,20.23
2022-11-29T00:14:57.543Z,18.50
2022-11-29T00:17:24.607Z,19.00
2022-11-29T00:19:51.737Z,18.83
2022-11-29T00:22:18.856Z,21.10
2022-11-29T00:24:47.281Z,20.30
2022-11-29T00:27:14.380Z,19.67
2022-11-29T00:29:41.457Z,21.20
2022-11-29T00:32:08.580Z,20.77
2022-11-29T00:34:35.764Z,19.57
2022-11-29T00:37:02.892Z,21.30
2022-11-29T00:39:29.999Z,20.23
2022-11-29T00:41:58.466Z,20.73
2022-11-29T00:44:25.555Z,19.47
2022-11-29T00:46:52.683Z,19.70
2022-11-29T00:49:19.809Z,20.40
2022-11-29T00:51:46.929Z,23.73
2022-11-29T00:54:14.057Z,22.50
2022-11-29T00:56:41.255Z,20.93
2022-11-29T00:59:09.766Z,22.27
2022-11-29T01:01:36.908Z,23.73
2022-11-29T01:04:04.276Z,22.50
2022-11-29T01:06:31.359Z,23.83
2022-11-29T01:08:58.495Z,22.67
2022-11-29T01:11:26.864Z,23.87
2022-11-29T01:13:54.704Z,21.90
2022-11-29T01:16:23.355Z,23.17
2022-11-29T01:18:50.456Z,24.50
2022-11-29T01:21:19.006Z,24.07
2022-11-29T01:23:46.276Z,24.87
2022-11-29T01:26:14.735Z,23.90
2022-11-29T01:28:42.255Z,22.40
2022-11-29T01:31:10.312Z,23.30
2022-11-29T01:33:39.103Z,23.53
2022-11-29T01:36:07.197Z,23.23
2022-11-29T01:38:34.489Z,23.97
2022-11-29T01:41:02.549Z,23.63
2022-11-29T01:43:29.972Z,23.90
2022-11-29T01:45:57.346Z,24.50
2022-11-29T01:48:25.640Z,25.37
2022-11-29T01:50:54.679Z,25.07
2022-11-29T01:53:21.873Z,25.73
2022-11-29T01:55:54.590Z,25.70
2022-11-29T01:58:21.826Z,27.20
2022-11-29T02:00:49.193Z,28.03
2022-11-29T02:03:18.224Z,27.00
2022-11-29T02:05:47.751Z,29.37
2022-11-29T02:08:17.128Z,28.20
2022-11-29T02:10:50.069Z,28.73
2022-11-29T02:13:22.729Z,28.33
2022-11-29T02:15:54.678Z,31.50
2022-11-29T02:18:23.881Z,29.13
2022-11-29T02:21:08.061Z,28.37
2022-11-29T02:23:53.821Z,28.43
2022-11-29T02:26:31.248Z,30.53
2022-11-29T02:29:23.830Z,31.10
2022-11-29T02:32:05.826Z,29.80
2022-11-29T02:34:47.835Z,29.00
2022-11-29T02:37:21.698Z,29.57
2022-11-29T02:39:54.782Z,29.40
2022-11-29T02:42:29.325Z,30.93
2022-11-29T02:45:08.450Z,31.50
2022-11-29T02:47:44.543Z,30.40
2022-11-29T02:50:29.507Z,32.23
2022-11-29T02:53:07.108Z,31.10
2022-11-29T02:55:36.617Z,32.27
2022-11-29T02:58:06.979Z,34.80
2022-11-29T03:00:36.296Z,33.30
2022-11-29T03:03:07.098Z,37.80
2022-11-29T03:05:41.295Z,35.60
2022-11-29T03:08:12.518Z,37.60
2022-11-29T03:10:45.729Z,38.70
2022-11-29T03:13:17.783Z,40.60
2022-11-29T03:15:50.045Z,39.13
2022-11-29T03:18:24.260Z,38.77
2022-11-29T03:20:58.571Z,42.13
2022-11-29T03:23:28.831Z,40.97
2022-11-29T03:25:58.051Z,39.90
2022-11-29T03:28:29.556Z,41.97
2022-11-29T03:31:00.260Z,43.10
2022-11-29T03:33:33.095Z,47.40
2022-11-29T03:36:05.078Z,48.87
2022-11-29T03:38:35.632Z,47.83
2022-11-29T03:41:07.831Z,49.80
2022-11-29T03:43:37.653Z,50.87
2022-11-29T03:46:06.604Z,52.50
2022-11-29T03:48:35.842Z,52.50
2022-11-29T03:51:06.156Z,52.10
2022-11-29T03:53:36.503Z,53.30
2022-11-29T03:56:05.715Z,54.77
2022-11-29T03:58:41.991Z,52.90
2022-11-29T04:01:23.323Z,55.40
2022-11-29T04:04:21.440Z,54.20
2022-11-29T04:06:59.963Z,53.90
2022-11-29T04:09:31.867Z,53.33
2022-11-29T04:12:19.716Z,58.37
2022-11-29T04:14:57.615Z,54.30
2022-11-29T04:17:42.681Z,53.30
2022-11-29T04:20:28.597Z,55.87
2022-11-29T04:23:07.589Z,56.03
2022-11-29T04:25:40.373Z,57.07
2022-11-29T04:28:17.719Z,56.73
2022-11-29T04:30:51.002Z,53.97
2022-11-29T04:33:31.376Z,59.40
2022-11-29T04:36:06.891Z,55.60
2022-11-29T04:38:46.516Z,63.60
2022-11-29T04:41:24.265Z,58.67
2022-11-29T04:43:58.196Z,63.50
2022-11-29T04:46:41.383Z,59.17
2022-11-29T04:49:21.726Z,58.20
2022-11-29T04:52:06.271Z,57.17
2022-11-29T04:54:37.001Z,62.10
2022-11-29T04:57:07.090Z,56.43
2022-11-29T04:59:39.880Z,57.63
2022-11-29T05:02:11.506Z,57.80
2022-11-29T05:04:47.311Z,59.50
2022-11-29T05:07:19.173Z,60.57
2022-11-29T05:09:52.294Z,59.90
2022-11-29T05:12:21.436Z,58.17
2022-11-29T05:14:57.026Z,58.83
2022-11-29T05:17:37.703Z,57.90
2022-11-29T05:20:19.446Z,59.60
2022-11-29T05:22:52.275Z,58.23
2022-11-29T05:25:31.958Z,57.03
2022-11-29T05:28:09.705Z,54.43
2022-11-29T05:30:44.495Z,61.60
2022-11-29T05:33:16.692Z,61.83
2022-11-29T05:35:53.759Z,58.70
2022-11-29T05:38:38.820Z,59.60
2022-11-29T05:41:12.322Z,58.77
2022-11-29T05:43:46.417Z,57.47
2022-11-29T05:46:17.906Z,62.40
2022-11-29T05:48:49.482Z,61.80
2022-11-29T05:51:20.661Z,62.20
2022-11-29T05:53:52.130Z,62.50
2022-11-29T05:56:26.094Z,64.80
2022-11-29T05:58:57.023Z,59.20
2022-11-29T06:01:25.790Z,62.40
2022-11-29T06:03:56.617Z,66.10
2022-11-29T06:06:28.733Z,64.00
2022-11-29T06:08:58.927Z,62.27
2022-11-29T06:11:31.303Z,63.30
2022-11-29T06:14:03.057Z,64.17
2022-11-29T06:16:45.063Z,63.50
2022-11-29T06:19:30.293Z,62.17
2022-11-29T06:22:01.067Z,56.33
2022-11-29T06:24:37.039Z,55.90
2022-11-29T06:27:16.800Z,50.90
2022-11-29T06:29:46.584Z,54.53
2022-11-29T06:32:19.909Z,53.20
2022-11-29T06:34:49.532Z,52.77
2022-11-29T06:37:20.446Z,50.73
2022-11-29T06:39:47.873Z,51.27
2022-11-29T06:42:16.808Z,53.10
2022-11-29T06:44:44.529Z,48.33
2022-11-29T06:47:15.671Z,44.20
2022-11-29T06:49:45.358Z,51.17
2022-11-29T06:52:17.814Z,51.40
2022-11-29T06:54:50.730Z,48.57
2022-11-29T06:57:20.934Z,48.03
2022-11-29T06:59:59.355Z,47.07
2022-11-29T07:02:34.551Z,46.30
2022-11-29T07:05:05.086Z,45.40
2022-11-29T07:07:33.885Z,46.10
2022-11-29T07:10:02.446Z,47.90
2022-11-29T07:12:31.363Z,49.07
2022-11-29T07:14:58.694Z,43.57
2022-11-29T07:17:28.024Z,46.37
2022-11-29T07:20:00.609Z,46.10
2022-11-29T07:22:35.557Z,42.30
2022-11-29T07:25:04.648Z,46.23
2022-11-29T07:27:38.462Z,45.23
2022-11-29T07:30:10.603Z,41.80
2022-11-29T07:32:48.845Z,43.83
2022-11-29T07:35:19.837Z,45.60
2022-11-29T07:37:53.905Z,42.47
2022-11-29T07:40:24.380Z,42.77
2022-11-29T07:42:58.956Z,40.73
2022-11-29T07:45:28.129Z,43.40
2022-11-29T07:47:55.628Z,39.03
2022-11-29T07:50:22.788Z,40.87
2022-11-29T07:52:50.194Z,43.00
2022-11-29T07:55:19.276Z,44.67
2022-11-29T07:57:46.527Z,43.07
2022-11-29T08:00:15.601Z,41.00
2022-11-29T08:02:42.792Z,41.33
2022-11-29T08:05:10.481Z,41.47
2022-11-29T08:07:38.166Z,39.90
2022-11-29T08:10:07.576Z,40.93
2022-11-29T08:12:34.689Z,39.37
2022-11-29T08:15:01.823Z,39.03
2022-11-29T08:17:30.263Z,41.03
2022-11-29T08:20:01.250Z,40.83
2022-11-29T08:22:31.086Z,40.77
2022-11-29T08:24:58.223Z,42.73
2022-11-29T08:27:25.372Z,40.67
2022-11-29T08:29:52.503Z,42.50
2022-11-29T08:32:19.662Z,40.90
2022-11-29T08:34:48.339Z,41.73
2022-11-29T08:37:15.501Z,40.07
2022-11-29T08:39:43.986Z,42.97
2022-11-29T08:42:11.102Z,42.70
2022-11-29T08:44:38.177Z,43.43
2022-11-29T08:47:05.277Z,40.10
2022-11-29T08:49:32.372Z,40.00
2022-11-29T08:52:00.823Z,42.03
2022-11-29T08:54:27.939Z,40.60
2022-11-29T08:59:42.127Z,39.60
2022-11-29T09:02:09.483Z,39.20
2022-11-29T09:04:36.593Z,40.80
2022-11-29T09:07:05.031Z,37.90
2022-11-29T09:09:32.117Z,41.60
2022-11-29T09:11:59.268Z,39.07
2022-11-29T09:14:26.372Z,36.73
2022-11-29T09:16:53.518Z,35.63
2022-11-29T09:19:20.653Z,39.97
2022-11-29T09:21:47.838Z,39.10
2022-11-29T09:24:16.294Z,42.53
2022-11-29T09:26:43.361Z,39.43
2022-11-29T09:29:11.393Z,40.80
2022-11-29T09:31:38.577Z,39.97
2022-11-29T09:34:05.700Z,39.90
2022-11-29T09:36:32.954Z,36.07
2022-11-29T09:39:01.849Z,35.73
2022-11-29T09:41:43.012Z,34.30
2022-11-29T09:44:17.538Z,35.90
2022-11-29T09:46:48.138Z,36.03
2022-11-29T09:49:23.880Z,37.80
2022-11-29T09:51:56.046Z,36.57
2022-11-29T09:54:28.237Z,38.10
2022-11-29T09:56:57.332Z,40.13
2022-11-29T09:59:25.922Z,36.93
2022-11-29T10:01:55.073Z,41.17
2022-11-29T10:04:23.500Z,37.07
2022-11-29T10:06:55.202Z,38.77
2022-11-29T10:09:27.402Z,36.57
2022-11-29T10:12:01.411Z,37.00
2022-11-29T10:14:30.662Z,36.83
2022-11-29T10:17:01.355Z,36.63
2022-11-29T10:19:31.616Z,36.87
2022-11-29T10:22:01.306Z,38.57
2022-11-29T10:24:29.126Z,37.30
2022-11-29T10:26:56.274Z,37.00
2022-11-29T10:29:24.829Z,36.93
2022-11-29T10:31:52.326Z,37.63
2022-11-29T10:34:20.858Z,39.30
2022-11-29T10:36:49.397Z,36.40
2022-11-29T10:39:20.120Z,37.67
2022-11-29T10:41:48.266Z,39.50
2022-11-29T10:44:15.648Z,38.03
2022-11-29T10:46:44.071Z,37.93
2022-11-29T10:49:12.948Z,36.00
2022-11-29T10:51:40.010Z,38.07
2022-11-29T10:54:16.306Z,37.47
2022-11-29T10:56:44.704Z,41.10
2022-11-29T10:59:19.890Z,39.00
2022-11-29T11:01:48.402Z,37.83
2022-11-29T11:04:16.526Z,36.90
2022-11-29T11:06:45.327Z,38.77
2022-11-29T11:09:14.866Z,37.07
2022-11-29T11:11:42.116Z,38.40
2022-11-29T11:14:18.945Z,37.70
2022-11-29T11:16:46.056Z,37.50
2022-11-29T11:19:26.718Z,35.77
2022-11-29T11:21:54.086Z,34.50
2022-11-29T11:24:24.044Z,34.70
2022-11-29T11:26:51.142Z,34.10
2022-11-29T11:29:20.492Z,34.87
2022-11-29T11:31:52.568Z,35.63
2022-11-29T11:34:29.506Z,33.87
2022-11-29T11:37:17.538Z,34.03
2022-11-29T11:39:45.667Z,32.70
2022-11-29T11:42:13.908Z,32.47
2022-11-29T11:44:47.967Z,34.57
2022-11-29T11:47:17.124Z,31.93
2022-11-29T11:49:49.760Z,31.60
2022-11-29T11:52:19.508Z,31.87
2022-11-29T11:54:49.345Z,29.37
2022-11-29T11:57:17.302Z,33.03
2022-11-29T11:59:48.275Z,30.33
2022-11-29T12:02:25.220Z,28.50
2022-11-29T12:04:54.679Z,30.97
2022-11-29T12:07:44.934Z,30.33
2022-11-29T12:10:19.459Z,31.93
2022-11-29T12:12:47.847Z,31.13
2022-11-29T12:15:17.901Z,28.27
2022-11-29T12:17:46.888Z,29.87
2022-11-29T12:20:19.598Z,31.20
2022-11-29T12:22:49.647Z,27.80
2022-11-29T12:25:18.644Z,31.37
2022-11-29T12:27:45.764Z,29.67
2022-11-29T12:30:13.628Z,25.47
2022-11-29T12:33:10.225Z,27.30
2022-11-29T12:35:42.531Z,26.50
2022-11-29T12:38:13.900Z,26.73
2022-11-29T12:40:44.886Z,25.67
2022-11-29T12:43:16.445Z,26.40
2022-11-29T12:45:48.205Z,27.97
2022-11-29T12:48:22.565Z,27.27
2022-11-29T12:50:56.595Z,27.03
2022-11-29T12:53:30.486Z,24.13
2022-11-29T12:56:00.585Z,26.77
2022-11-29T12:58:30.431Z,26.27
2022-11-29T13:01:02.679Z,26.53
2022-11-29T13:03:33.032Z,25.93
2022-11-29T13:06:07.281Z,28.53
2022-11-29T13:08:46.362Z,26.77
2022-11-29T13:11:18.011Z,29.10
2022-11-29T13:13:46.655Z,26.53
2022-11-29T13:19:13.049Z,28.83
2022-11-29T13:21:46.129Z,29.23
2022-11-29T13:24:15.201Z,28.50
2022-11-29T13:26:42.558Z,26.87
2022-11-29T13:29:13.430Z,30.37
2022-11-29T13:31:40.812Z,28.57
2022-11-29T13:34:10.473Z,27.67
2022-11-29T13:36:46.496Z,29.03
2022-11-29T13:39:18.868Z,30.40
2022-11-29T13:41:48.444Z,29.70
2022-11-29T13:44:21.197Z,29.10
2022-11-29T13:46:52.611Z,32.27
2022-11-29T13:49:21.030Z,28.20
2022-11-29T13:51:49.961Z,27.43
2022-11-29T13:54:26.649Z,29.23
2022-11-29T13:57:01.516Z,27.10
2022-11-29T13:59:31.183Z,27.80
2022-11-29T14:01:58.559Z,29.47
2022-11-29T14:04:28.722Z,27.53
2022-11-29T14:07:17.013Z,30.70
2022-11-29T14:09:48.928Z,31.20
2022-11-29T14:12:30.977Z,28.37
2022-11-29T14:15:00.813Z,32.23
2022-11-29T14:17:47.847Z,31.10
2022-11-29T14:20:33.595Z,29.80
2022-11-29T14:23:24.583Z,31.07
2022-11-29T14:26:10.114Z,29.63
2022-11-29T14:28:39.091Z,30.93
2022-11-29T14:31:06.659Z,39.93
2022-11-29T14:33:43.385Z,31.93
2022-11-29T14:36:34.557Z,30.47
2022-11-29T14:39:10.961Z,31.40
2022-11-29T14:41:44.666Z,36.50
2022-11-29T14:44:17.952Z,34.00
2022-11-29T14:46:45.359Z,35.10
2022-11-29T14:49:20.714Z,36.30
2022-11-29T14:52:02.665Z,30.33
2022-11-29T14:54:29.787Z,28.80
2022-11-29T14:56:56.906Z,31.70
2022-11-29T14:59:54.284Z,33.00
2022-11-29T15:02:28.047Z,28.97
2022-11-29T15:04:56.510Z,30.23
2022-11-29T15:07:25.748Z,29.00
2022-11-29T15:09:55.343Z,26.50
2022-11-29T15:12:25.447Z,28.50
2022-11-29T15:14:57.137Z,27.23
2022-11-29T15:17:27.799Z,26.33
2022-11-29T15:20:02.130Z,26.60
2022-11-29T15:22:30.468Z,26.83
2022-11-29T15:25:00.042Z,25.40
2022-11-29T15:27:27.374Z,26.33
2022-11-29T15:29:54.625Z,27.57
2022-11-29T15:32:23.825Z,29.07
2022-11-29T15:34:51.790Z,25.83
2022-11-29T15:37:24.045Z,25.23
2022-11-29T15:40:01.185Z,25.70
2022-11-29T15:42:32.549Z,28.97
2022-11-29T15:44:59.877Z,27.93
2022-11-29T15:47:27.316Z,25.13
2022-11-29T15:49:54.828Z,27.37
2022-11-29T15:52:25.645Z,25.53
2022-11-29T15:54:55.074Z,26.27
2022-11-29T15:57:25.520Z,23.60
2022-11-29T15:59:54.421Z,25.10
2022-11-29T16:02:23.117Z,25.37
2022-11-29T16:04:53.230Z,24.47
2022-11-29T16:07:21.021Z,22.30
2022-11-29T16:09:52.837Z,23.67
2022-11-29T16:12:19.988Z,23.83
2022-11-29T16:14:51.511Z,27.67
2022-11-29T16:17:19.293Z,26.43
2022-11-29T16:19:46.414Z,24.87
2022-11-29T16:22:18.296Z,20.97
2022-11-29T16:24:54.443Z,22.33
2022-11-29T16:27:22.101Z,23.10
2022-11-29T16:29:50.321Z,21.33
2022-11-29T16:32:23.281Z,23.00
2022-11-29T16:34:50.445Z,24.63
2022-11-29T16:37:19.015Z,20.53
2022-11-29T16:39:47.188Z,20.40
2022-11-29T16:42:23.392Z,20.07
2022-11-29T16:44:55.109Z,21.60
2022-11-29T16:47:22.919Z,22.03
2022-11-29T16:50:07.787Z,21.57
2022-11-29T16:52:35.054Z,24.07
2022-11-29T16:55:02.133Z,21.93
2022-11-29T16:57:30.835Z,20.37
2022-11-29T16:59:58.321Z,21.50
2022-11-29T17:02:28.687Z,19.70
2022-11-29T17:04:55.862Z,20.90
2022-11-29T17:07:26.414Z,21.07
2022-11-29T17:09:53.693Z,20.50
2022-11-29T17:12:20.762Z,21.30
2022-11-29T17:14:49.200Z,21.27
2022-11-29T17:17:17.261Z,20.70
2022-11-29T17:19:44.394Z,19.50
2022-11-29T17:22:11.616Z,18.67
2022-11-29T17:24:42.215Z,19.17
2022-11-29T17:27:13.605Z,20.80
2022-11-29T17:29:40.689Z,19.63
2022-11-29T17:32:09.226Z,18.90
2022-11-29T17:34:36.392Z,19.83
2022-11-29T17:37:03.481Z,19.93
2022-11-29T17:39:30.550Z,19.43
2022-11-29T17:41:57.659Z,19.33
2022-11-29T17:44:24.732Z,21.07
2022-11-29T17:46:51.817Z,20.77
2022-11-29T17:49:20.238Z,18.70
2022-11-29T17:51:52.413Z,21.97
2022-11-29T17:54:20.275Z,21.53
2022-11-29T17:56:47.357Z,19.43
2022-11-29T17:59:14.426Z,19.07
2022-11-29T18:01:41.607Z,19.70
2022-11-29T18:04:08.787Z,18.97
2022-11-29T18:06:38.103Z,21.43
2022-11-29T18:09:06.102Z,20.67
2022-11-29T18:11:41.680Z,22.17
2022-11-29T18:14:14.144Z,21.07
2022-11-29T18:16:41.397Z,21.80
2022-11-29T18:19:09.473Z,20.77
2022-11-29T18:21:38.644Z,20.70
2022-11-29T18:24:06.920Z,24.17
2022-11-29T18:26:34.847Z,22.50
2022-11-29T18:29:02.092Z,22.53
2022-11-29T18:31:29.775Z,23.00
2022-11-29T18:33:57.896Z,23.47
2022-11-29T18:36:25.780Z,27.17
2022-11-29T18:38:56.570Z,28.63
2022-11-29T18:41:24.485Z,26.80
2022-11-29T18:43:56.500Z,26.60
2022-11-29T18:46:23.744Z,29.13
2022-11-29T18:48:50.905Z,29.07
2022-11-29T18:51:18.931Z,30.07
2022-11-29T18:53:46.635Z,31.00
2022-11-29T18:56:15.618Z,28.57
2022-11-29T18:58:43.257Z,29.57
2022-11-29T19:01:11.507Z,28.87
2022-11-29T19:03:39.466Z,28.73
2022-11-29T19:06:07.761Z,31.07
2022-11-29T19:08:34.916Z,29.97
2022-11-29T19:11:04.341Z,28.80
2022-11-29T19:13:32.865Z,29.17
2022-11-29T19:16:00.163Z,29.60
2022-11-29T19:18:27.380Z,30.27
2022-11-29T19:20:54.469Z,30.67
2022-11-29T19:23:21.660Z,32.00
2022-11-29T19:25:48.745Z,32.90
2022-11-29T19:28:15.879Z,31.83
2022-11-29T19:30:44.362Z,33.10
2022-11-29T19:33:13.611Z,32.90
2022-11-29T19:35:40.676Z,35.53
2022-11-29T19:38:07.800Z,34.37
2022-11-29T19:40:34.903Z,33.23
2022-11-29T19:43:03.136Z,36.20
2022-11-29T19:45:30.230Z,33.53
2022-11-29T19:47:58.639Z,33.27
2022-11-29T19:50:25.727Z,34.37
2022-11-29T19:52:52.802Z,33.37
2022-11-29T19:55:19.892Z,33.43
2022-11-29T19:57:46.993Z,35.37
2022-11-29T20:00:14.632Z,33.20
2022-11-29T20:02:41.772Z,36.20
2022-11-29T20:05:10.372Z,33.67
2022-11-29T20:07:37.476Z,36.50
2022-11-29T20:10:05.016Z,36.70
2022-11-29T20:12:32.085Z,35.10
2022-11-29T20:15:01.051Z,35.87
2022-11-29T20:17:28.334Z,34.70
2022-11-29T20:19:55.494Z,34.40
2022-11-29T20:22:23.983Z,33.40
2022-11-29T20:24:51.072Z,34.73
2022-11-29T20:27:18.127Z,35.37
2022-11-29T20:29:45.525Z,37.07
2022-11-29T20:32:12.953Z,36.57
2022-11-29T20:34:40.340Z,33.87
2022-11-29T20:37:21.366Z,36.10
2022-11-29T20:39:50.990Z,38.37
2022-11-29T20:42:36.879Z,34.83
2022-11-29T20:45:05.160Z,32.10
2022-11-29T20:47:33.981Z,33.80
2022-11-29T20:50:01.202Z,35.40
2022-11-29T20:52:33.495Z,32.57
2022-11-29T20:55:01.898Z,39.10
2022-11-29T20:57:29.117Z,37.10
2022-11-29T20:59:56.218Z,39.00
2022-11-29T21:02:23.395Z,34.60
2022-11-29T21:04:50.481Z,35.40
2022-11-29T21:07:17.860Z,36.63
2022-11-29T21:09:45.146Z,35.27
2022-11-29T21:12:14.295Z,31.67
2022-11-29T21:14:41.594Z,35.03
2022-11-29T21:17:08.912Z,34.40
2022-11-29T21:19:36.363Z,33.80
2022-11-29T21:22:05.228Z,34.30
2022-11-29T21:24:38.674Z,34.47
2022-11-29T21:27:06.013Z,36.30
2022-11-29T21:29:34.896Z,38.77
2022-11-29T21:32:02.204Z,35.97
2022-11-29T21:34:29.321Z,32.43
2022-11-29T21:36:57.340Z,33.60
2022-11-29T21:39:26.750Z,34.30
2022-11-29T21:41:53.841Z,32.57
2022-11-29T21:44:20.944Z,36.03
2022-11-29T21:46:49.405Z,33.93
2022-11-29T21:49:16.515Z,35.80
2022-11-29T21:51:43.615Z,33.50
2022-11-29T21:54:10.698Z,31.93
2022-11-29T21:56:37.813Z,31.77
2022-11-29T21:59:04.937Z,32.60
2022-11-29T22:01:32.116Z,33.40
2022-11-29T22:04:00.593Z,34.43
2022-11-29T22:06:27.695Z,35.80
2022-11-29T22:08:54.801Z,33.50
2022-11-29T22:11:22.766Z,38.20
2022-11-29T22:13:49.897Z,34.47
2022-11-29T22:16:16.991Z,35.90
2022-11-29T22:18:44.097Z,33.50
2022-11-29T22:21:12.507Z,32.93
2022-11-29T22:23:39.612Z,36.60
2022-11-29T22:26:07.300Z,36.90
2022-11-29T22:28:34.582Z,36.57
2022-11-29T22:31:02.664Z,33.67
2022-11-29T22:33:30.087Z,34.97
2022-11-29T22:35:57.315Z,35.70
2022-11-29T22:38:25.745Z,38.97
2022-11-29T22:40:52.841Z,36.10
2022-11-29T22:43:19.949Z,35.33
2022-11-29T22:45:47.114Z,37.70
2022-11-29T22:48:14.212Z,37.87
2022-11-29T22:50:41.275Z,36.33
2022-11-29T22:53:08.415Z,38.50
2022-11-29T22:55:36.876Z,37.10
2022-11-29T22:58:03.943Z,36.70
2022-11-29T23:00:31.102Z,39.30
2022-11-29T23:02:58.262Z,40.53
2022-11-29T23:05:29.415Z,38.60
2022-11-29T23:07:59.236Z,40.67
2022-11-29T23:10:26.360Z,37.40
2022-11-29T23:12:54.842Z,40.67
2022-11-29T23:15:21.955Z,40.90
2022-11-29T23:17:49.020Z,40.10
2022-11-29T23:20:16.232Z,38.17
2022-11-29T23:22:43.333Z,38.70
2022-11-29T23:25:10.424Z,37.10
2022-11-29T23:27:37.541Z,39.13
2022-11-29T23:30:06.946Z,38.13
2022-11-29T23:32:34.053Z,38.60
2022-11-29T23:35:01.156Z,40.50
2022-11-29T23:37:28.245Z,36.23
2022-11-29T23:39:55.332Z,39.60
2022-11-29T23:42:22.483Z,40.90
2022-11-29T23:44:49.573Z,37.27
2022-11-29T23:47:18.009Z,42.47
2022-11-29T23:49:45.094Z,38.00
2022-11-29T23:52:12.162Z,44.17
2022-11-29T23:54:39.270Z,40.50
2022-11-29T23:57:06.355Z,42.53
2022-11-29T23:59:33.472Z,46.37
